createdAt,value
2022-08-02T00:00:40.377Z,95960.91
2022-08-02T00:05:42.814Z,95952.28
2022-08-02T00:10:55.396Z,95932.31
2022-08-02T00:15:58.750Z,95929.22
2022-08-02T00:21:01.125Z,95907.25
2022-08-02T00:26:03.802Z,95920.66
2022-08-02T00:31:06.124Z,95939.19
2022-08-02T00:36:08.474Z,95915.47
2022-08-02T00:41:17.726Z,95957.19
2022-08-02T00:46:21.077Z,95936.78
2022-08-02T00:51:26.505Z,95954.59
2022-08-02T00:56:31.302Z,95910.31
2022-08-02T01:01:55.873Z,95917.69
2022-08-02T01:07:13.372Z,95922.97
2022-08-02T01:12:18.141Z,95943.63
2022-08-02T01:17:36.872Z,95930.09
2022-08-02T01:23:03.196Z,95943.97
2022-08-02T01:28:36.901Z,95964.41
2022-08-02T01:33:48.846Z,95958.06
2022-08-02T01:38:55.062Z,95923.81
2022-08-02T01:43:59.676Z,95953.69
2022-08-02T01:49:08.481Z,95948.38
2022-08-02T01:54:19.109Z,95923.44
2022-08-02T01:59:23.306Z,95907.47
2022-08-02T02:04:30.897Z,95922.59
2022-08-02T02:09:40.819Z,95945.13
2022-08-02T02:14:55.132Z,95917.53
2022-08-02T02:20:02.276Z,95935.06
2022-08-02T02:25:06.459Z,95907.94
2022-08-02T02:30:12.144Z,95911.00
2022-08-02T02:35:18.279Z,95943.00
2022-08-02T02:40:21.723Z,95918.22
2022-08-02T02:45:25.317Z,95925.44
2022-08-02T02:50:28.909Z,95916.94
2022-08-02T02:55:32.284Z,95922.78
2022-08-02T03:00:56.241Z,95902.88
2022-08-02T03:05:58.590Z,95952.69
2022-08-02T03:11:01.086Z,95912.94
2022-08-02T03:16:10.418Z,95915.78
2022-08-02T03:21:17.375Z,95950.56
2022-08-02T03:26:21.503Z,95920.72
2022-08-02T03:31:24.822Z,95957.66
2022-08-02T03:36:33.397Z,95958.88
2022-08-02T03:41:39.926Z,95933.63
2022-08-02T03:46:53.450Z,95978.94
2022-08-02T03:51:56.199Z,95991.00
2022-08-02T03:56:58.631Z,95978.00
2022-08-02T04:02:03.867Z,96009.50
2022-08-02T04:07:07.527Z,96009.03
2022-08-02T04:12:13.473Z,96005.59
2022-08-02T04:17:25.506Z,95972.63
2022-08-02T04:22:39.986Z,96006.91
2022-08-02T04:27:49.992Z,95987.34
2022-08-02T04:33:10.880Z,96027.16
2022-08-02T04:38:19.483Z,95978.38
2022-08-02T04:43:22.998Z,96018.72
2022-08-02T04:48:29.795Z,95989.22
2022-08-02T04:53:32.405Z,96021.06
2022-08-02T04:58:40.675Z,96002.75
2022-08-02T05:03:43.184Z,96006.97
2022-08-02T05:08:52.324Z,96028.41
2022-08-02T05:13:58.481Z,95993.53
2022-08-02T05:19:04.168Z,95997.13
2022-08-02T05:24:07.458Z,95984.22
2022-08-02T05:29:09.837Z,96018.47
2022-08-02T05:34:12.890Z,96009.59
2022-08-02T05:39:19.104Z,96009.22
2022-08-02T05:44:29.080Z,96021.06
2022-08-02T05:49:31.301Z,96021.22
2022-08-02T05:54:39.713Z,96041.75
2022-08-02T05:59:59.104Z,96034.53
2022-08-02T06:05:05.978Z,96019.16
2022-08-02T06:10:09.895Z,96022.22
2022-08-02T06:15:15.279Z,96034.34
2022-08-02T06:20:20.888Z,96032.91
2022-08-02T06:25:49.837Z,96044.41
2022-08-02T06:30:46.709Z,96047.13
2022-08-02T06:36:18.975Z,96017.97
2022-08-02T06:41:24.745Z,96007.19
2022-08-02T06:47:10.071Z,96030.94
2022-08-02T06:51:50.291Z,96026.59
2022-08-02T06:56:52.789Z,96020.47
2022-08-02T07:01:55.583Z,96020.63
2022-08-02T07:07:10.446Z,96006.19
2022-08-02T07:12:13.010Z,95978.63
2022-08-02T07:17:15.713Z,96017.66
2022-08-02T07:22:19.570Z,96016.00
2022-08-02T07:27:22.497Z,96017.19
2022-08-02T07:33:37.594Z,95991.88
2022-08-02T07:38:09.287Z,95998.69
2022-08-02T07:43:11.883Z,96001.44
2022-08-02T07:48:15.265Z,95991.56
2022-08-02T07:53:17.742Z,96009.16
2022-08-02T07:58:20.098Z,96022.50
2022-08-02T08:03:22.332Z,95990.63
2022-08-02T08:08:24.696Z,96022.06
2022-08-02T08:13:27.025Z,96034.69
2022-08-02T08:18:29.680Z,96043.69
2022-08-02T08:23:39.555Z,95998.72
2022-08-02T08:28:42.279Z,96013.00
2022-08-02T08:33:46.076Z,96035.06
2022-08-02T08:38:50.414Z,96007.88
2022-08-02T08:43:53.506Z,96028.78
2022-08-02T08:49:23.626Z,96022.09
2022-08-02T08:54:28.608Z,96030.00
2022-08-02T08:59:31.080Z,96013.06
2022-08-02T09:04:42.015Z,96005.28
2022-08-02T09:09:57.153Z,96018.72
2022-08-02T09:15:04.355Z,96006.63
2022-08-02T09:20:11.227Z,96004.47
2022-08-02T09:25:17.102Z,96005.56
2022-08-02T09:30:19.494Z,96011.59
2022-08-02T09:36:06.476Z,96012.50
2022-08-02T09:41:03.187Z,96008.34
2022-08-02T09:46:17.493Z,96025.00
2022-08-02T09:51:29.141Z,96020.91
2022-08-02T09:56:50.686Z,95995.53
2022-08-02T10:02:01.868Z,96002.34
2022-08-02T10:07:18.077Z,96014.94
2022-08-02T10:12:22.556Z,96019.91
2022-08-02T10:17:25.570Z,96023.31
2022-08-02T10:22:28.061Z,96007.53
2022-08-02T10:27:48.884Z,95999.38
2022-08-02T10:32:54.969Z,96018.03
2022-08-02T10:38:03.750Z,96007.38
2022-08-02T10:43:06.090Z,96026.19
2022-08-02T10:48:14.816Z,96006.63
2022-08-02T10:53:24.922Z,96009.56
2022-08-02T10:58:30.401Z,95982.84
2022-08-02T11:03:39.278Z,96010.19
2022-08-02T11:08:42.430Z,96003.41
2022-08-02T11:14:02.776Z,96015.53
2022-08-02T11:19:06.738Z,96010.34
2022-08-02T11:24:28.048Z,96015.72
2022-08-02T11:29:39.053Z,96017.78
2022-08-02T11:34:42.716Z,96003.66
2022-08-02T11:39:52.824Z,95994.13
2022-08-02T11:44:55.592Z,96005.16
2022-08-02T11:50:05.879Z,95992.44
2022-08-02T11:55:09.456Z,95987.78
2022-08-02T12:00:20.789Z,95964.88
2022-08-02T12:06:02.887Z,95977.47
2022-08-02T12:10:50.421Z,95976.44
2022-08-02T12:15:52.843Z,95962.81
2022-08-02T12:20:55.068Z,95950.22
2022-08-02T12:26:07.688Z,95968.06
2022-08-02T12:31:13.553Z,95982.38
2022-08-02T12:36:24.388Z,95972.97
2022-08-02T12:41:31.405Z,95972.72
2022-08-02T12:46:41.873Z,95982.34
2022-08-02T12:51:54.821Z,95988.06
2022-08-02T12:57:16.513Z,95985.22
2022-08-02T13:02:19.931Z,95981.91
2022-08-02T13:07:22.804Z,95991.69
2022-08-02T13:12:25.050Z,95982.16
2022-08-02T13:17:27.238Z,95991.88
2022-08-02T13:22:29.674Z,95973.84
2022-08-02T13:27:33.994Z,95986.69
2022-08-02T13:32:36.339Z,95971.75
2022-08-02T13:37:40.374Z,95983.91
2022-08-02T13:42:42.893Z,95991.53
2022-08-02T13:48:04.001Z,95994.50
2022-08-02T13:53:07.593Z,95994.22
2022-08-02T13:58:09.989Z,95971.91
2022-08-02T14:03:14.460Z,95967.09
2022-08-02T14:08:18.735Z,95985.28
2022-08-02T14:13:21.564Z,95981.09
2022-08-02T14:18:23.817Z,95965.75
2022-08-02T14:23:49.267Z,95976.31
2022-08-02T14:28:49.907Z,95962.91
2022-08-02T14:33:53.722Z,95972.53
2022-08-02T14:38:59.349Z,95964.50
2022-08-02T14:44:04.543Z,95973.94
2022-08-02T14:49:08.446Z,95973.69
2022-08-02T14:54:11.924Z,95984.22
2022-08-02T14:59:17.000Z,95975.22
2022-08-02T15:04:19.258Z,95973.56
2022-08-02T15:09:21.647Z,95966.09
2022-08-02T15:14:26.398Z,95972.28
2022-08-02T15:19:58.999Z,95975.13
2022-08-02T15:24:52.264Z,95959.31
2022-08-02T15:30:00.634Z,95982.69
2022-08-02T15:35:03.199Z,95975.56
2022-08-02T15:40:06.119Z,95975.31
2022-08-02T15:45:13.127Z,95976.94
2022-08-02T15:50:18.884Z,95973.88
2022-08-02T15:55:21.354Z,95990.00
2022-08-02T16:00:23.866Z,95969.44
2022-08-02T16:05:39.723Z,95988.22
2022-08-02T16:10:47.537Z,95999.66
2022-08-02T16:15:55.055Z,96013.28
2022-08-02T16:20:57.422Z,95981.06
2022-08-02T16:26:04.532Z,96027.59
2022-08-02T16:31:11.422Z,96027.28
2022-08-02T16:36:15.117Z,96022.66
2022-08-02T16:41:22.712Z,96036.97
2022-08-02T16:46:24.849Z,95998.06
2022-08-02T16:51:27.833Z,96037.44
2022-08-02T16:56:33.470Z,96018.00
2022-08-02T17:02:03.051Z,96025.97
2022-08-02T17:06:58.426Z,96044.56
2022-08-02T17:12:01.556Z,96056.91
2022-08-02T17:17:04.284Z,96054.84
2022-08-02T17:22:10.127Z,96003.84
2022-08-02T17:27:24.954Z,96024.16
2022-08-02T17:32:31.632Z,96057.81
2022-08-02T17:37:36.510Z,96062.34
2022-08-02T17:42:43.942Z,96087.44
2022-08-02T17:48:05.048Z,96084.81
2022-08-02T17:53:08.065Z,96101.00
2022-08-02T17:58:12.482Z,96107.50
2022-08-02T18:03:15.155Z,96098.84
2022-08-02T18:08:17.464Z,96105.22
2022-08-02T18:13:28.503Z,96116.03
2022-08-02T18:18:35.568Z,96124.19
2022-08-02T18:23:38.812Z,96146.34
2022-08-02T18:29:03.655Z,96114.25
2022-08-02T18:34:10.196Z,96112.69
2022-08-02T18:39:12.541Z,96148.00
2022-08-02T18:44:19.346Z,96159.38
2022-08-02T18:49:22.657Z,96152.06
2022-08-02T18:54:26.608Z,96157.78
2022-08-02T18:59:51.338Z,96121.78
2022-08-02T19:04:54.588Z,96175.50
2022-08-02T19:09:59.862Z,96183.34
2022-08-02T19:15:02.439Z,96176.72
2022-08-02T19:20:19.171Z,96179.44
2022-08-02T19:25:38.724Z,96191.47
2022-08-02T19:30:43.328Z,96149.09
2022-08-02T19:36:02.048Z,96159.16
2022-08-02T19:41:06.348Z,96184.97
2022-08-02T19:46:15.946Z,96185.38
2022-08-02T19:51:49.583Z,96203.53
2022-08-02T19:56:45.475Z,96202.78
2022-08-02T20:01:49.121Z,96198.44
2022-08-02T20:06:51.588Z,96197.38
2022-08-02T20:11:55.420Z,96176.16
2022-08-02T20:16:59.968Z,96200.75
2022-08-02T20:22:02.351Z,96193.53
2022-08-02T20:27:04.800Z,96190.13
2022-08-02T20:32:07.865Z,96187.94
2022-08-02T20:38:01.008Z,96183.13
2022-08-02T20:42:34.392Z,96184.28
2022-08-02T20:47:39.715Z,96180.22
2022-08-02T20:52:51.518Z,96189.69
2022-08-02T20:58:00.226Z,96199.56
2022-08-02T21:03:09.518Z,96175.75
2022-08-02T21:08:14.902Z,96180.81
2022-08-02T21:13:22.533Z,96194.03
2022-08-02T21:18:34.922Z,96193.06
2022-08-02T21:23:48.407Z,96180.09
2022-08-02T21:28:56.892Z,96177.34
2022-08-02T21:34:03.145Z,96203.97
2022-08-02T21:39:14.889Z,96209.00
2022-08-02T21:44:19.260Z,96166.88
2022-08-02T21:54:49.999Z,96179.53
2022-08-02T21:59:55.493Z,96189.94
2022-08-02T22:04:58.279Z,96196.16
2022-08-02T22:10:00.648Z,96195.25
2022-08-02T22:15:05.371Z,96204.19
2022-08-02T22:20:15.467Z,96195.91
2022-08-02T22:25:27.171Z,96196.69
2022-08-02T22:30:43.212Z,96169.34
2022-08-02T22:35:46.612Z,96184.38
2022-08-02T22:40:50.599Z,96178.44
2022-08-02T22:45:52.919Z,96174.63
2022-08-02T22:50:55.145Z,96197.03
2022-08-02T22:55:57.596Z,96196.78
2022-08-02T23:01:00.140Z,96192.91
2022-08-02T23:06:02.495Z,96196.78
2022-08-02T23:11:04.872Z,96196.19
2022-08-02T23:16:26.402Z,96200.81
2022-08-02T23:21:46.128Z,96198.69
2022-08-02T23:26:55.211Z,96182.91
2022-08-02T23:31:57.816Z,96191.16
2022-08-02T23:37:04.047Z,96187.00
2022-08-02T23:42:06.494Z,96198.59
2022-08-02T23:47:11.255Z,96174.44
2022-08-02T23:52:13.787Z,96189.31
2022-08-02T23:57:20.070Z,96177.13
